Time;durP1;ratioP1;P1;durP2;ratioP2;P2;SDS_P1;SDS_P2;PMS_P1;PMS_P2;Temp;Humidity;BMP_temperature;BMP_pressure;BME280_temperature;BME280_humidity;BME280_pressure;Samples;Min_cycle;Max_cycle;Signal;HPM_P1;HPM_P2
2023/08/19 00:00:22;;;;;;;3.30;1.63;;;13.80;45.40;;;;;;5068502;28;20665;-72
2023/08/19 00:02:50;;;;;;;6.60;2.07;;;14.00;45.50;;;;;;5061713;28;20570;-66
2023/08/19 00:05:18;;;;;;;5.50;1.57;;;14.00;44.60;;;;;;5071858;28;20194;-67
2023/08/19 00:07:46;;;;;;;1.10;1.00;;;14.20;44.40;;;;;;5062085;28;20248;-72
2023/08/19 00:10:14;;;;;;;2.47;1.30;;;14.20;44.90;;;;;;5064639;28;20664;-71
2023/08/19 00:12:41;;;;;;;4.20;1.33;;;14.10;44.40;;;;;;5073166;28;20226;-69
2023/08/19 00:15:09;;;;;;;4.30;1.10;;;14.20;44.10;;;;;;5077367;28;20223;-69
2023/08/19 00:17:37;;;;;;;2.20;1.20;;;14.30;44.20;;;;;;5070725;28;20179;-70
2023/08/19 00:20:06;;;;;;;2.50;1.50;;;14.40;43.70;;;;;;5068723;28;20218;-75
2023/08/19 00:22:33;;;;;;;3.60;1.50;;;14.50;43.50;;;;;;5061938;28;20618;-69
2023/08/19 00:25:01;;;;;;;4.63;1.43;;;14.50;43.10;;;;;;5069268;28;20189;-72
2023/08/19 00:27:28;;;;;;;3.13;1.10;;;14.70;43.00;;;;;;5067000;28;20228;-73
2023/08/19 00:29:56;;;;;;;2.47;1.30;;;14.90;43.40;;;;;;5073023;28;20194;-74
2023/08/19 00:32:23;;;;;;;3.63;1.43;;;15.00;41.80;;;;;;5063237;28;20180;-72
2023/08/19 00:34:51;;;;;;;3.53;1.23;;;14.80;42.30;;;;;;5074972;28;20298;-74
2023/08/19 00:37:19;;;;;;;4.17;1.60;;;14.90;42.70;;;;;;5071958;28;20552;-72
2023/08/19 00:39:53;;;;;;;2.63;1.47;;;15.00;41.80;;;;;;5063030;28;21065;-74
2023/08/19 00:42:32;;;;;;;2.50;1.50;;;15.00;41.80;;;;;;5061900;28;20227;-75
2023/08/19 00:44:59;;;;;;;6.77;1.67;;;15.30;42.00;;;;;;5057973;28;20647;-74
2023/08/19 00:47:27;;;;;;;3.33;1.40;;;15.30;41.50;;;;;;5076194;28;20207;-73
2023/08/19 00:49:55;;;;;;;2.87;1.50;;;15.40;41.60;;;;;;5070939;28;20182;-75
2023/08/19 00:52:22;;;;;;;3.30;1.40;;;15.50;41.00;;;;;;5049724;28;20233;-71
2023/08/19 00:54:50;;;;;;;4.17;1.53;;;15.60;41.20;;;;;;5068400;28;20220;-75
2023/08/19 00:57:18;;;;;;;2.43;1.10;;;15.90;41.00;;;;;;5081470;28;20811;-72
2023/08/19 00:59:45;;;;;;;4.77;1.77;;;16.00;41.10;;;;;;5068274;28;20190;-74
2023/08/19 01:02:13;;;;;;;4.20;1.23;;;16.10;40.10;;;;;;5072834;28;20266;-76
2023/08/19 01:04:40;;;;;;;4.17;1.40;;;16.20;40.60;;;;;;5071800;28;20207;-73
2023/08/19 01:07:20;;;;;;;1.43;1.00;;;16.20;40.30;;;;;;5075432;28;20276;-73
2023/08/19 01:10:08;;;;;;;2.70;1.23;;;16.00;39.60;;;;;;5069418;28;20195;-71
2023/08/19 01:13:01;;;;;;;3.97;1.47;;;16.00;39.80;;;;;;5073450;28;20174;-74
2023/08/19 01:15:34;;;;;;;2.90;1.30;;;16.10;40.30;;;;;;5059630;28;20199;-76
2023/08/19 01:18:03;;;;;;;3.03;1.50;;;16.40;39.30;;;;;;5069084;28;20210;-72
2023/08/19 01:20:32;;;;;;;4.30;1.40;;;16.30;39.40;;;;;;5042268;28;20187;-72
2023/08/19 01:23:27;;;;;;;4.30;1.20;;;16.30;39.50;;;;;;5079281;28;20185;-75
2023/08/19 01:25:55;;;;;;;4.03;1.30;;;16.50;39.50;;;;;;5075213;28;20619;-71
2023/08/19 01:28:23;;;;;;;1.73;1.10;;;16.80;39.90;;;;;;5071959;28;20168;-76
2023/08/19 01:30:50;;;;;;;4.13;1.47;;;16.80;37.90;;;;;;5064270;28;20221;-72
2023/08/19 01:33:19;;;;;;;2.30;1.10;;;16.80;38.40;;;;;;5072307;28;20298;-74
2023/08/19 01:36:10;;;;;;;1.53;1.03;;;17.10;38.20;;;;;;5064367;28;20568;-69
2023/08/19 01:38:59;;;;;;;3.27;1.37;;;17.00;37.50;;;;;;5072245;28;20233;-72
2023/08/19 01:41:28;;;;;;;3.73;1.67;;;16.90;37.90;;;;;;5058465;28;20189;-70
2023/08/19 01:43:59;;;;;;;2.83;1.00;;;17.10;38.10;;;;;;5073417;28;20660;-73
2023/08/19 01:46:28;;;;;;;3.87;1.10;;;17.30;37.60;;;;;;5064225;28;20190;-71
2023/08/19 01:48:56;;;;;;;2.67;0.93;;;17.40;37.40;;;;;;5077768;28;20186;-72
2023/08/19 01:51:23;;;;;;;3.47;1.20;;;17.60;36.80;;;;;;5058330;28;20182;-73
2023/08/19 01:53:51;;;;;;;2.73;1.10;;;17.80;37.10;;;;;;5059420;28;20194;-72
2023/08/19 01:56:18;;;;;;;3.07;1.37;;;18.10;37.10;;;;;;5045511;28;20178;-69
2023/08/19 01:58:45;;;;;;;2.83;1.03;;;17.90;37.10;;;;;;5077009;28;20641;-75
2023/08/19 02:01:13;;;;;;;2.67;1.30;;;17.90;37.10;;;;;;5064825;28;20800;-70
2023/08/19 02:03:41;;;;;;;4.97;1.20;;;17.90;37.10;;;;;;5070796;28;20393;-73
2023/08/19 02:06:08;;;;;;;3.87;1.20;;;18.00;36.50;;;;;;5075165;28;20180;-68
2023/08/19 02:08:36;;;;;;;7.60;1.37;;;18.30;36.50;;;;;;5067554;28;20701;-67
2023/08/19 02:11:03;;;;;;;3.33;1.37;;;18.10;36.00;;;;;;5073226;28;20215;-71
2023/08/19 02:13:31;;;;;;;1.73;1.00;;;18.10;36.20;;;;;;5078725;28;20289;-64
2023/08/19 02:16:05;;;;;;;2.07;1.00;;;18.30;36.40;;;;;;5078632;28;20192;-72
2023/08/19 02:18:32;;;;;;;2.53;1.17;;;18.30;36.00;;;;;;5063403;28;20174;-65
2023/08/19 02:20:59;;;;;;;2.03;0.93;;;18.40;36.30;;;;;;5071756;28;20183;-68
2023/08/19 02:23:36;;;;;;;2.40;1.33;;;18.50;36.20;;;;;;5078039;28;20249;-69
2023/08/19 02:26:03;;;;;;;4.00;1.13;;;18.70;36.30;;;;;;5053236;28;20195;-65
2023/08/19 02:28:31;;;;;;;2.73;1.20;;;18.80;35.70;;;;;;5079311;28;20182;-65
2023/08/19 02:31:05;;;;;;;3.07;1.37;;;18.40;36.70;;;;;;5072883;28;20182;-64
2023/08/19 02:33:32;;;;;;;2.17;0.90;;;18.50;36.70;;;;;;5067255;28;20217;-67
2023/08/19 02:36:00;;;;;;;3.17;0.93;;;18.50;36.70;;;;;;5058255;28;20194;-66
2023/08/19 02:38:27;;;;;;;2.13;0.80;;;18.70;35.90;;;;;;5077355;28;20539;-64
2023/08/19 02:40:54;;;;;;;2.90;1.03;;;18.70;36.70;;;;;;5070071;28;20532;-65
2023/08/19 02:43:25;;;;;;;3.03;1.10;;;18.50;36.60;;;;;;5067423;28;20203;-65
2023/08/19 02:45:53;;;;;;;5.37;1.30;;;18.70;37.10;;;;;;5073822;28;20170;-67
2023/08/19 02:48:20;;;;;;;1.23;1.00;;;18.90;36.80;;;;;;5077060;28;20210;-65
2023/08/19 02:50:48;;;;;;;3.20;0.93;;;19.20;36.60;;;;;;5073229;28;20260;-64
2023/08/19 02:53:15;;;;;;;2.60;1.13;;;19.20;36.00;;;;;;5052955;28;20187;-68
2023/08/19 02:55:42;;;;;;;2.13;1.00;;;19.20;36.20;;;;;;5059457;28;20187;-65
2023/08/19 02:58:13;;;;;;;2.67;1.20;;;19.00;36.90;;;;;;5078130;28;20265;-66
2023/08/19 03:00:41;;;;;;;2.83;0.97;;;18.80;36.70;;;;;;5074487;28;20175;-65
2023/08/19 03:03:08;;;;;;;3.43;1.10;;;18.70;37.50;;;;;;5076560;28;20182;-63
2023/08/19 03:05:40;;;;;;;3.97;1.20;;;18.90;37.60;;;;;;5071930;28;20187;-64
2023/08/19 03:08:09;;;;;;;3.27;1.10;;;19.00;37.20;;;;;;5077506;28;20215;-68
2023/08/19 03:10:37;;;;;;;3.07;1.00;;;19.20;36.60;;;;;;5069641;28;20188;-74
2023/08/19 03:13:06;;;;;;;2.00;0.90;;;19.10;37.30;;;;;;5078260;28;20214;-68
2023/08/19 03:15:36;;;;;;;2.80;1.00;;;19.30;37.10;;;;;;5064421;28;20212;-69
2023/08/19 03:18:04;;;;;;;2.87;1.17;;;19.40;36.40;;;;;;5079970;28;20536;-76
2023/08/19 03:20:32;;;;;;;5.23;1.13;;;19.60;36.50;;;;;;5067971;28;20183;-69
2023/08/19 03:23:00;;;;;;;2.53;0.73;;;19.50;36.40;;;;;;5071661;28;20288;-70
2023/08/19 03:25:34;;;;;;;4.07;1.10;;;19.40;36.60;;;;;;5073010;28;20238;-75
2023/08/19 03:28:01;;;;;;;3.40;1.03;;;19.10;37.40;;;;;;5055488;28;20191;-75
2023/08/19 03:30:29;;;;;;;3.60;1.30;;;19.00;37.60;;;;;;5065549;28;20182;-68
2023/08/19 03:32:56;;;;;;;3.53;1.00;;;19.10;38.00;;;;;;5073596;28;20687;-73
2023/08/19 03:35:24;;;;;;;1.07;0.70;;;19.20;37.30;;;;;;5070784;28;20190;-74
2023/08/19 03:37:51;;;;;;;2.33;0.93;;;19.00;37.70;;;;;;5063667;28;20167;-72
2023/08/19 03:40:19;;;;;;;1.73;0.90;;;19.10;37.60;;;;;;5040417;28;20191;-71
2023/08/19 03:42:46;;;;;;;1.50;0.80;;;18.80;38.00;;;;;;5075007;28;20196;-73
2023/08/19 03:45:13;;;;;;;1.27;0.80;;;18.30;39.20;;;;;;5064395;28;20171;-70
2023/08/19 03:47:41;;;;;;;4.03;1.13;;;18.00;39.70;;;;;;5068725;28;20187;-72
2023/08/19 03:50:09;;;;;;;6.53;1.10;;;18.00;40.30;;;;;;5072427;28;20168;-71
2023/08/19 03:52:36;;;;;;;2.73;0.90;;;18.00;40.20;;;;;;5070371;28;20865;-71
2023/08/19 03:55:05;;;;;;;2.00;1.10;;;18.00;40.30;;;;;;5066882;28;20251;-72
2023/08/19 03:57:35;;;;;;;3.43;1.17;;;17.80;41.00;;;;;;5069350;28;20270;-74
2023/08/19 04:00:03;;;;;;;1.93;1.00;;;17.80;40.90;;;;;;5068100;28;20175;-69
2023/08/19 04:02:30;;;;;;;4.03;1.10;;;18.00;40.80;;;;;;5060449;28;20256;-72
2023/08/19 04:05:03;;;;;;;2.77;1.10;;;18.00;41.00;;;;;;5064676;28;20213;-71
2023/08/19 04:07:31;;;;;;;2.53;1.00;;;18.00;41.20;;;;;;5061611;28;20579;-72
2023/08/19 04:09:58;;;;;;;3.13;1.10;;;18.20;40.90;;;;;;5069476;28;20298;-69
2023/08/19 04:12:27;;;;;;;2.10;1.10;;;18.20;40.90;;;;;;5074019;28;20197;-72
2023/08/19 04:14:54;;;;;;;6.33;0.97;;;18.20;41.40;;;;;;5054481;28;20210;-77
2023/08/19 04:17:22;;;;;;;3.33;0.97;;;18.20;41.00;;;;;;5066261;28;20178;-76
2023/08/19 04:19:53;;;;;;;1.93;0.90;;;18.00;41.40;;;;;;5067122;28;20182;-77
2023/08/19 04:22:20;;;;;;;1.93;0.70;;;17.90;41.40;;;;;;5072725;28;20547;-75
2023/08/19 04:24:52;;;;;;;4.17;1.10;;;18.00;41.50;;;;;;5065792;28;20265;-72
2023/08/19 04:27:22;;;;;;;3.40;1.00;;;18.30;41.30;;;;;;5063225;28;20181;-71
2023/08/19 04:29:49;;;;;;;1.23;0.97;;;18.80;40.20;;;;;;5047390;28;20184;-69
2023/08/19 04:32:16;;;;;;;4.30;1.00;;;18.80;40.10;;;;;;5071645;28;20175;-68
2023/08/19 04:34:44;;;;;;;1.63;0.90;;;18.60;40.60;;;;;;5069060;28;20211;-66
2023/08/19 04:37:11;;;;;;;1.50;0.87;;;18.30;41.20;;;;;;5078864;28;20637;-67
2023/08/19 04:39:39;;;;;;;1.87;1.00;;;18.30;41.50;;;;;;5079133;28;20237;-66
2023/08/19 04:42:07;;;;;;;3.07;1.23;;;18.20;42.10;;;;;;5078985;28;20179;-69
2023/08/19 04:44:34;;;;;;;1.40;0.90;;;18.00;42.10;;;;;;5059477;28;20190;-68
2023/08/19 04:47:02;;;;;;;1.13;0.90;;;18.10;42.30;;;;;;5072300;28;20535;-71
2023/08/19 04:49:31;;;;;;;1.63;0.80;;;18.10;42.30;;;;;;5076901;28;20196;-74
2023/08/19 04:51:58;;;;;;;1.93;0.90;;;18.20;42.00;;;;;;5079606;28;20179;-67
2023/08/19 04:54:26;;;;;;;1.73;0.90;;;18.60;41.70;;;;;;5076115;28;20230;-70
2023/08/19 04:56:53;;;;;;;2.70;0.90;;;19.80;39.50;;;;;;5072062;28;20179;-73
2023/08/19 04:59:21;;;;;;;1.93;0.90;;;20.50;37.90;;;;;;5072564;28;20171;-69
2023/08/19 05:01:48;;;;;;;3.03;0.80;;;20.90;37.50;;;;;;5069726;28;20191;-72
2023/08/19 05:04:15;;;;;;;3.33;0.90;;;21.40;36.60;;;;;;5073836;28;20649;-69
2023/08/19 05:06:43;;;;;;;2.87;0.90;;;22.10;35.50;;;;;;5074780;28;20615;-70
2023/08/19 05:09:10;;;;;;;3.13;0.87;;;21.60;35.90;;;;;;5072493;28;20588;-65
2023/08/19 05:11:38;;;;;;;1.90;0.90;;;21.60;35.70;;;;;;5070914;28;20179;-70
2023/08/19 05:14:05;;;;;;;2.10;1.10;;;21.50;36.60;;;;;;5076578;28;20894;-70
2023/08/19 05:16:33;;;;;;;4.70;0.80;;;21.30;36.40;;;;;;5077848;28;20212;-68
2023/08/19 05:19:19;;;;;;;2.07;0.77;;;21.30;36.70;;;;;;5082012;28;20198;-74
2023/08/19 05:21:50;;;;;;;1.37;0.83;;;21.00;37.30;;;;;;5075809;28;20214;-71
2023/08/19 05:24:18;;;;;;;1.60;0.90;;;21.00;37.80;;;;;;5072730;28;20671;-65
2023/08/19 05:26:46;;;;;;;3.13;0.77;;;20.90;37.50;;;;;;5080265;28;20287;-71
2023/08/19 05:29:15;;;;;;;1.67;1.10;;;20.80;37.70;;;;;;5081863;28;20187;-67
2023/08/19 05:31:43;;;;;;;1.70;1.10;;;20.70;37.70;;;;;;5080001;28;20232;-74
2023/08/19 05:34:10;;;;;;;1.63;1.00;;;20.80;37.80;;;;;;5081613;28;20233;-68
2023/08/19 05:36:38;;;;;;;1.83;1.00;;;20.90;37.80;;;;;;5062294;28;20840;-68
2023/08/19 05:39:05;;;;;;;1.70;1.13;;;20.80;37.90;;;;;;5080218;28;20193;-66
2023/08/19 05:41:33;;;;;;;1.07;0.97;;;21.70;37.00;;;;;;5062315;28;20188;-64
2023/08/19 05:44:00;;;;;;;1.93;1.20;;;21.20;37.20;;;;;;5077421;28;20279;-64
2023/08/19 05:46:28;;;;;;;3.63;1.60;;;20.60;38.50;;;;;;5048360;28;20191;-66
2023/08/19 05:48:56;;;;;;;2.50;1.43;;;20.00;39.50;;;;;;5074373;28;20190;-65
2023/08/19 05:51:23;;;;;;;2.83;1.60;;;19.30;41.00;;;;;;5076510;28;20186;-66
2023/08/19 05:53:51;;;;;;;2.50;1.47;;;19.60;40.60;;;;;;5058201;28;20985;-65
2023/08/19 05:56:18;;;;;;;1.70;1.60;;;20.70;38.60;;;;;;5072541;28;20191;-66
2023/08/19 05:58:46;;;;;;;1.73;1.20;;;20.60;38.80;;;;;;5064113;28;20242;-68
2023/08/19 06:01:13;;;;;;;2.47;1.43;;;20.80;38.20;;;;;;5072247;28;20171;-68
2023/08/19 06:03:41;;;;;;;2.67;1.40;;;20.60;38.70;;;;;;5067945;28;20183;-71
2023/08/19 06:06:08;;;;;;;1.80;1.40;;;20.60;38.80;;;;;;5070254;28;20649;-64
2023/08/19 06:08:36;;;;;;;3.00;1.30;;;20.90;38.80;;;;;;5074897;28;20227;-66
2023/08/19 06:11:06;;;;;;;2.17;1.20;;;20.90;38.20;;;;;;5057507;28;20262;-69
2023/08/19 06:13:37;;;;;;;2.43;1.10;;;20.90;38.70;;;;;;5066436;28;20563;-72
2023/08/19 06:16:06;;;;;;;2.40;1.20;;;20.70;39.00;;;;;;5070197;28;20278;-77
2023/08/19 06:18:34;;;;;;;3.60;1.40;;;20.30;39.80;;;;;;5069144;28;20171;-73
2023/08/19 06:21:02;;;;;;;3.77;1.20;;;20.60;39.80;;;;;;5059746;28;20203;-73
2023/08/19 06:23:30;;;;;;;2.50;1.23;;;20.20;40.20;;;;;;5074336;28;20191;-74
2023/08/19 06:25:58;;;;;;;2.70;1.30;;;19.30;42.00;;;;;;5071200;28;20194;-76
2023/08/19 06:28:25;;;;;;;1.93;1.00;;;18.80;43.00;;;;;;5071554;28;20187;-74
2023/08/19 06:30:53;;;;;;;3.83;1.20;;;18.30;44.10;;;;;;5069382;28;20339;-70
2023/08/19 06:33:20;;;;;;;2.17;1.00;;;18.10;44.90;;;;;;5078885;28;20189;-71
2023/08/19 06:35:49;;;;;;;2.97;1.20;;;18.30;44.70;;;;;;5068350;28;20695;-73
2023/08/19 06:38:29;;;;;;;2.03;1.23;;;18.40;44.20;;;;;;5078841;28;20178;-70
2023/08/19 06:40:59;;;;;;;4.03;1.20;;;18.00;45.30;;;;;;5071579;28;20187;-72
2023/08/19 06:43:28;;;;;;;3.67;1.10;;;17.80;45.40;;;;;;5076148;28;20680;-68
2023/08/19 06:46:03;;;;;;;1.43;1.10;;;17.60;46.00;;;;;;5046089;28;20179;-67
2023/08/19 06:48:31;;;;;;;2.90;1.40;;;17.40;46.40;;;;;;5047164;28;20521;-70
2023/08/19 06:51:00;;;;;;;1.77;1.10;;;17.40;46.80;;;;;;5063088;28;20655;-72
2023/08/19 06:53:28;;;;;;;2.07;1.00;;;17.30;47.20;;;;;;5042048;28;20234;-68
2023/08/19 06:56:02;;;;;;;1.83;1.13;;;17.20;47.50;;;;;;5069927;28;20175;-65
2023/08/19 06:58:49;;;;;;;2.13;1.20;;;17.10;47.70;;;;;;5077411;28;20216;-69
2023/08/19 07:01:22;;;;;;;11.63;1.47;;;17.00;48.10;;;;;;5052664;28;20179;-73
2023/08/19 07:03:53;;;;;;;3.53;1.10;;;16.90;48.30;;;;;;5070588;28;20203;-73
2023/08/19 07:06:21;;;;;;;3.40;1.03;;;16.80;48.70;;;;;;5059645;28;20185;-72
2023/08/19 07:08:50;;;;;;;15.27;1.40;;;16.60;49.20;;;;;;5084602;28;20276;-74
2023/08/19 07:11:18;;;;;;;4.23;1.17;;;16.50;49.40;;;;;;5074102;28;20324;-69
2023/08/19 07:13:46;;;;;;;1.63;1.10;;;16.40;50.00;;;;;;5070764;28;20211;-69
2023/08/19 07:16:16;;;;;;;1.90;1.20;;;16.30;50.30;;;;;;5077734;28;20187;-67
2023/08/19 07:18:52;;;;;;;1.77;1.23;;;16.30;50.50;;;;;;5082259;28;20211;-68
2023/08/19 07:21:24;;;;;;;1.63;1.03;;;16.20;50.80;;;;;;5076920;28;20185;-72
2023/08/19 07:23:58;;;;;;;1.30;1.10;;;16.10;50.90;;;;;;5072047;28;20196;-73
2023/08/19 07:26:27;;;;;;;1.80;1.00;;;16.00;51.10;;;;;;5068174;28;20182;-69
2023/08/19 07:29:00;;;;;;;2.97;1.00;;;16.00;51.50;;;;;;5067829;28;20244;-66
2023/08/19 07:31:28;;;;;;;2.13;1.10;;;15.90;51.70;;;;;;5071826;28;20177;-64
2023/08/19 07:33:56;;;;;;;1.23;1.13;;;15.80;52.10;;;;;;5051323;28;20264;-67
2023/08/19 07:36:23;;;;;;;2.33;1.17;;;15.80;52.30;;;;;;5051208;28;20180;-65
2023/08/19 07:39:00;;;;;;;1.10;1.00;;;15.70;52.70;;;;;;5077141;28;20183;-66
2023/08/19 07:41:27;;;;;;;4.10;1.10;;;15.70;52.60;;;;;;5066924;28;20542;-65
2023/08/19 07:43:55;;;;;;;3.37;1.50;;;15.60;53.00;;;;;;5093681;28;20262;-68
2023/08/19 07:46:22;;;;;;;1.40;1.07;;;15.50;53.20;;;;;;5056807;28;20184;-70
2023/08/19 07:48:50;;;;;;;2.00;1.30;;;15.50;53.40;;;;;;5065638;28;20247;-65
2023/08/19 07:51:17;;;;;;;1.97;1.27;;;15.50;53.70;;;;;;5068911;28;20680;-69
2023/08/19 07:53:45;;;;;;;1.55;1.30;;;15.40;53.70;;;;;;5068571;28;20419;-75
2023/08/19 07:56:12;;;;;;;1.10;1.00;;;15.40;53.80;;;;;;5069263;28;20568;-68
2023/08/19 07:58:40;;;;;;;1.37;1.23;;;15.40;53.90;;;;;;5066351;28;20250;-65
2023/08/19 08:01:10;;;;;;;1.40;1.10;;;15.30;54.00;;;;;;5044338;28;20222;-65
2023/08/19 08:03:40;;;;;;;1.83;1.30;;;15.30;54.30;;;;;;5068574;28;20184;-67
2023/08/19 08:06:08;;;;;;;1.33;1.10;;;15.30;54.40;;;;;;5059818;28;20672;-65
2023/08/19 08:08:35;;;;;;;1.07;0.93;;;15.20;54.60;;;;;;5065413;28;20222;-68
2023/08/19 08:11:03;;;;;;;1.70;1.07;;;15.20;54.70;;;;;;5072580;28;20540;-69
2023/08/19 08:13:31;;;;;;;1.37;0.93;;;15.20;54.90;;;;;;5070672;28;20220;-70
2023/08/19 08:16:00;;;;;;;1.97;1.07;;;15.20;54.90;;;;;;5077222;28;20179;-69
2023/08/19 08:18:27;;;;;;;1.50;1.33;;;15.10;55.20;;;;;;5069915;28;20186;-72
2023/08/19 08:20:55;;;;;;;2.40;1.13;;;15.10;55.40;;;;;;5061301;28;20207;-68
2023/08/19 08:23:22;;;;;;;1.77;1.00;;;15.10;55.30;;;;;;5078186;28;20602;-74
2023/08/19 08:25:50;;;;;;;1.47;1.30;;;15.10;55.50;;;;;;5071009;28;20217;-70
2023/08/19 08:28:17;;;;;;;1.73;1.20;;;15.10;55.40;;;;;;5075791;28;20191;-66
2023/08/19 08:30:44;;;;;;;2.10;1.10;;;15.00;55.90;;;;;;5071216;28;20178;-68
2023/08/19 08:33:12;;;;;;;1.37;1.20;;;15.00;55.90;;;;;;5082576;28;20203;-64
2023/08/19 08:35:39;;;;;;;1.57;1.30;;;15.00;56.30;;;;;;5065272;28;20260;-69
2023/08/19 08:38:07;;;;;;;2.07;1.17;;;14.90;56.30;;;;;;5072804;28;20183;-69
2023/08/19 08:40:34;;;;;;;2.23;1.20;;;15.00;56.50;;;;;;5069494;28;20189;-66
2023/08/19 08:43:04;;;;;;;1.87;1.37;;;14.90;56.60;;;;;;5071616;28;20191;-73
2023/08/19 08:45:32;;;;;;;1.43;1.30;;;14.90;56.70;;;;;;5070373;28;20191;-66
2023/08/19 08:48:04;;;;;;;2.80;1.30;;;14.90;56.80;;;;;;5069209;28;20176;-68
2023/08/19 08:50:32;;;;;;;1.83;1.20;;;14.90;56.90;;;;;;5081721;28;20672;-66
2023/08/19 08:52:59;;;;;;;1.43;1.23;;;14.90;56.90;;;;;;5050338;28;20208;-66
2023/08/19 08:55:27;;;;;;;1.70;1.37;;;14.80;57.10;;;;;;5070681;28;20462;-64
2023/08/19 08:57:55;;;;;;;1.63;1.10;;;14.80;57.40;;;;;;5065558;28;20185;-69
2023/08/19 09:00:23;;;;;;;1.93;1.33;;;14.80;57.50;;;;;;5055587;28;20182;-67
2023/08/19 09:03:03;;;;;;;1.07;1.07;;;14.80;57.70;;;;;;5070527;28;20180;-75
2023/08/19 09:05:31;;;;;;;1.00;1.00;;;14.80;57.90;;;;;;5068145;28;20592;-67
2023/08/19 09:08:07;;;;;;;1.70;1.27;;;14.70;57.90;;;;;;5067415;28;20600;-65
2023/08/19 09:10:36;;;;;;;1.07;1.07;;;14.70;58.00;;;;;;5057858;28;20232;-65
2023/08/19 09:13:04;;;;;;;1.47;0.80;;;14.70;58.00;;;;;;5069098;28;20202;-65
2023/08/19 09:15:35;;;;;;;0.87;0.87;;;14.80;58.10;;;;;;5066938;28;20199;-67
2023/08/19 09:18:04;;;;;;;1.23;1.13;;;14.70;58.00;;;;;;5054798;28;20191;-65
2023/08/19 09:20:33;;;;;;;1.60;1.30;;;14.70;58.30;;;;;;5077066;28;20171;-65
2023/08/19 09:23:08;;;;;;;1.57;1.03;;;14.60;58.60;;;;;;5062731;28;20190;-70
2023/08/19 09:25:39;;;;;;;1.67;1.50;;;14.60;58.70;;;;;;5055646;28;20188;-70
2023/08/19 09:28:07;;;;;;;1.23;1.13;;;14.50;58.80;;;;;;5073472;28;20204;-66
2023/08/19 09:30:39;;;;;;;1.70;1.57;;;14.50;59.00;;;;;;5079218;28;20175;-65
2023/08/19 09:33:06;;;;;;;1.70;1.30;;;14.40;59.20;;;;;;5072674;28;20207;-68
2023/08/19 09:35:41;;;;;;;1.50;1.40;;;14.40;59.40;;;;;;5060795;28;20179;-74
2023/08/19 09:38:20;;;;;;;2.20;1.30;;;14.30;59.70;;;;;;5069236;28;20642;-71
2023/08/19 09:41:02;;;;;;;1.30;1.20;;;14.30;59.90;;;;;;5068859;28;20190;-66
2023/08/19 09:43:29;;;;;;;2.63;1.50;;;14.30;59.50;;;;;;5058479;28;20763;-72
2023/08/19 09:46:00;;;;;;;1.47;1.37;;;14.30;59.90;;;;;;5067710;28;20227;-72
2023/08/19 09:48:28;;;;;;;2.20;1.60;;;14.20;60.10;;;;;;5070942;28;20188;-66
2023/08/19 09:50:55;;;;;;;1.70;1.60;;;14.20;60.60;;;;;;5057670;28;20627;-71
2023/08/19 09:53:23;;;;;;;2.60;1.93;;;14.10;60.60;;;;;;5063940;28;20539;-68
2023/08/19 09:55:51;;;;;;;2.40;2.10;;;14.10;60.70;;;;;;5076046;28;20194;-66
2023/08/19 09:58:18;;;;;;;2.63;2.03;;;13.90;61.10;;;;;;5067967;28;20180;-68
2023/08/19 10:00:47;;;;;;;3.10;1.60;;;13.90;61.40;;;;;;5073194;28;20278;-67
2023/08/19 10:03:17;;;;;;;2.80;2.00;;;13.80;61.40;;;;;;5071165;28;20179;-66
2023/08/19 10:05:49;;;;;;;3.63;2.63;;;13.80;61.90;;;;;;5072095;28;20179;-72
2023/08/19 10:08:26;;;;;;;7.30;4.13;;;13.70;62.30;;;;;;5075142;28;20215;-72
2023/08/19 10:10:54;;;;;;;5.07;2.60;;;13.70;62.70;;;;;;5073183;28;20198;-71
2023/08/19 10:13:22;;;;;;;2.87;2.50;;;13.60;62.70;;;;;;5070712;28;20192;-71
2023/08/19 10:15:52;;;;;;;3.00;2.37;;;13.70;62.70;;;;;;5073896;28;20278;-64
2023/08/19 10:18:27;;;;;;;2.30;2.10;;;13.70;62.50;;;;;;5073898;28;20246;-66
2023/08/19 10:20:57;;;;;;;3.53;2.60;;;13.80;62.80;;;;;;5074589;28;20195;-70
2023/08/19 10:23:26;;;;;;;2.27;1.80;;;13.80;62.80;;;;;;5081643;28;20653;-68
2023/08/19 10:25:54;;;;;;;2.80;2.60;;;13.80;62.80;;;;;;5074232;28;20180;-70
2023/08/19 10:28:33;;;;;;;3.57;2.53;;;13.70;62.90;;;;;;5081828;28;20186;-68
2023/08/19 10:31:09;;;;;;;4.97;3.03;;;13.70;63.00;;;;;;5071388;28;20192;-65
2023/08/19 10:33:45;;;;;;;7.53;4.93;;;13.70;63.30;;;;;;5082372;28;20211;-72
2023/08/19 10:36:17;;;;;;;5.10;3.10;;;13.70;63.50;;;;;;5067283;28;20194;-70
2023/08/19 10:38:59;;;;;;;5.97;4.00;;;13.60;63.50;;;;;;5074030;28;20551;-69
2023/08/19 10:41:38;;;;;;;2.37;2.17;;;13.60;63.80;;;;;;5074923;28;20190;-67
2023/08/19 10:44:09;;;;;;;5.23;4.07;;;13.50;64.10;;;;;;5082595;28;20189;-72
2023/08/19 10:46:45;;;;;;;6.37;3.90;;;13.50;64.40;;;;;;5061527;28;20271;-65
2023/08/19 10:49:21;;;;;;;11.07;5.23;;;13.50;64.50;;;;;;5067922;28;20183;-69
2023/08/19 10:52:05;;;;;;;5.67;3.83;;;13.50;64.20;;;;;;5067559;28;20202;-67
2023/08/19 10:54:39;;;;;;;4.57;2.13;;;13.50;64.10;;;;;;5067448;28;20220;-70
2023/08/19 10:57:25;;;;;;;2.07;1.87;;;13.50;64.10;;;;;;5077659;28;20291;-66
2023/08/19 11:00:01;;;;;;;1.97;1.77;;;13.50;64.30;;;;;;5058062;28;20294;-68
2023/08/19 11:02:30;;;;;;;2.53;1.83;;;13.50;64.20;;;;;;5081220;28;20178;-69
2023/08/19 11:05:01;;;;;;;3.27;2.30;;;13.50;64.50;;;;;;5071933;28;20188;-75
2023/08/19 11:07:28;;;;;;;3.17;2.00;;;13.40;64.40;;;;;;5074287;28;20179;-72
2023/08/19 11:09:56;;;;;;;3.27;1.80;;;13.40;64.50;;;;;;5055526;28;20249;-74
2023/08/19 11:12:27;;;;;;;2.90;2.10;;;13.30;64.60;;;;;;5058340;28;20181;-70
2023/08/19 11:14:59;;;;;;;2.37;2.00;;;13.30;64.80;;;;;;5073955;28;20211;-68
2023/08/19 11:17:33;;;;;;;3.93;3.07;;;13.30;64.80;;;;;;5079525;28;20191;-70
2023/08/19 11:20:12;;;;;;;2.77;2.30;;;13.30;64.90;;;;;;5052900;28;20186;-69
2023/08/19 11:22:47;;;;;;;4.60;2.63;;;13.30;65.00;;;;;;5063941;28;20194;-72
2023/08/19 11:25:15;;;;;;;3.93;2.57;;;13.30;65.10;;;;;;5066952;28;20187;-70
2023/08/19 11:27:43;;;;;;;2.83;2.37;;;13.30;65.00;;;;;;5066797;28;20597;-72
2023/08/19 11:30:14;;;;;;;2.23;2.03;;;13.30;65.10;;;;;;5078645;28;20187;-69
2023/08/19 11:32:48;;;;;;;4.30;2.20;;;13.30;65.10;;;;;;5055454;28;20337;-73
2023/08/19 11:35:15;;;;;;;3.80;2.30;;;13.30;65.00;;;;;;5075210;28;20218;-75
2023/08/19 11:37:43;;;;;;;2.87;2.57;;;13.30;65.00;;;;;;5078356;28;20263;-70
2023/08/19 11:40:13;;;;;;;3.57;2.93;;;13.30;65.00;;;;;;5073572;28;20187;-76
2023/08/19 11:42:44;;;;;;;2.57;2.30;;;13.30;65.00;;;;;;5072979;28;20179;-65
2023/08/19 11:45:12;;;;;;;2.97;2.40;;;13.30;65.00;;;;;;5072761;28;20534;-67
2023/08/19 11:47:45;;;;;;;3.03;2.07;;;13.30;65.00;;;;;;5077451;28;20453;-66
2023/08/19 11:50:16;;;;;;;1.80;1.70;;;13.30;64.90;;;;;;5071370;28;20215;-65
2023/08/19 11:52:53;;;;;;;2.03;1.83;;;13.30;64.90;;;;;;5058772;28;20202;-65
2023/08/19 11:55:20;;;;;;;2.53;2.17;;;13.40;65.20;;;;;;5075308;28;20289;-70
2023/08/19 11:57:48;;;;;;;1.90;1.50;;;13.40;64.90;;;;;;5069311;28;20186;-71
2023/08/19 12:00:16;;;;;;;2.43;2.10;;;13.40;64.90;;;;;;5063033;28;20664;-72
2023/08/19 12:02:47;;;;;;;1.80;1.60;;;13.40;65.10;;;;;;5061277;28;20184;-73
2023/08/19 12:05:34;;;;;;;1.97;1.30;;;13.40;65.40;;;;;;5067302;28;20176;-73
2023/08/19 12:08:02;;;;;;;1.90;1.60;;;13.40;65.30;;;;;;5037102;28;20215;-74
2023/08/19 12:10:42;;;;;;;1.67;1.57;;;13.40;65.40;;;;;;5063116;28;20189;-75
2023/08/19 12:13:09;;;;;;;2.40;2.20;;;13.40;65.40;;;;;;5062401;28;20180;-70
2023/08/19 12:15:37;;;;;;;1.73;1.63;;;13.40;65.60;;;;;;5072644;28;20237;-74
2023/08/19 12:18:15;;;;;;;1.60;1.50;;;13.40;65.80;;;;;;5072675;28;20172;-70
2023/08/19 12:20:42;;;;;;;2.20;1.53;;;13.40;65.70;;;;;;5074775;28;20266;-72
2023/08/19 12:23:10;;;;;;;1.53;1.43;;;13.50;65.60;;;;;;5073729;28;20164;-69
2023/08/19 12:25:55;;;;;;;2.10;1.70;;;13.50;65.30;;;;;;5066769;28;20228;-76
2023/08/19 12:28:24;;;;;;;1.60;1.20;;;13.50;65.50;;;;;;5062300;28;20186;-72
2023/08/19 12:30:55;;;;;;;2.57;1.70;;;13.40;65.70;;;;;;5071195;28;20175;-67
2023/08/19 12:33:23;;;;;;;1.53;1.43;;;13.40;65.90;;;;;;5064863;28;20167;-67
2023/08/19 12:35:51;;;;;;;1.50;1.40;;;13.40;65.90;;;;;;5065499;28;20191;-73
2023/08/19 12:38:23;;;;;;;1.40;1.30;;;13.50;65.90;;;;;;5070742;28;20695;-72
2023/08/19 12:40:50;;;;;;;1.50;1.40;;;13.40;66.00;;;;;;5076095;28;20180;-70
2023/08/19 12:43:17;;;;;;;1.20;1.10;;;13.50;65.60;;;;;;5070673;28;20270;-70
2023/08/19 12:46:00;;;;;;;2.53;1.80;;;13.60;65.50;;;;;;5070224;28;20186;-73
2023/08/19 12:48:30;;;;;;;1.70;1.60;;;13.50;65.60;;;;;;5072787;28;20187;-69
2023/08/19 12:50:58;;;;;;;1.50;1.40;;;13.50;65.60;;;;;;5072449;28;20184;-75
2023/08/19 12:53:34;;;;;;;1.87;1.40;;;13.50;65.80;;;;;;5075602;28;20221;-67
2023/08/19 12:56:03;;;;;;;1.73;1.50;;;13.50;65.90;;;;;;5068306;28;20244;-73
2023/08/19 12:58:30;;;;;;;1.57;1.40;;;13.40;66.00;;;;;;5068093;28;20279;-74